sensor_id;sensor_type;location;lat;lon;timestamp;temperature;humidity
17795;DHT22;9021;50.882;4.326;2023-04-22T00:00:33;10.40;99.90
17795;DHT22;9021;50.882;4.326;2023-04-22T00:03:01;11.10;99.90
17795;DHT22;9021;50.882;4.326;2023-04-22T00:05:27;11.00;99.90
17795;DHT22;9021;50.882;4.326;2023-04-22T00:12:45;10.60;99.90
17795;DHT22;9021;50.882;4.326;2023-04-22T00:17:39;10.40;99.90
17795;DHT22;9021;50.882;4.326;2023-04-22T00:20:05;10.90;99.90
17795;DHT22;9021;50.882;4.326;2023-04-22T00:22:32;11.10;99.90
17795;DHT22;9021;50.882;4.326;2023-04-22T00:24:58;10.60;99.90
17795;DHT22;9021;50.882;4.326;2023-04-22T00:27:23;10.70;99.90
17795;DHT22;9021;50.882;4.326;2023-04-22T00:29:49;11.20;99.90
17795;DHT22;9021;50.882;4.326;2023-04-22T00:32:15;11.20;99.90
17795;DHT22;9021;50.882;4.326;2023-04-22T00:34:40;10.80;99.90
17795;DHT22;9021;50.882;4.326;2023-04-22T00:37:06;11.00;99.90
17795;DHT22;9021;50.882;4.326;2023-04-22T00:39:32;10.80;99.90
17795;DHT22;9021;50.882;4.326;2023-04-22T00:41:57;10.40;99.90
17795;DHT22;9021;50.882;4.326;2023-04-22T00:44:23;10.60;99.90
17795;DHT22;9021;50.882;4.326;2023-04-22T00:46:49;10.60;99.90
17795;DHT22;9021;50.882;4.326;2023-04-22T00:49:15;10.20;99.90
17795;DHT22;9021;50.882;4.326;2023-04-22T00:51:41;10.50;99.90
17795;DHT22;9021;50.882;4.326;2023-04-22T00:54:07;10.50;99.90
17795;DHT22;9021;50.882;4.326;2023-04-22T00:56:34;10.40;99.90
17795;DHT22;9021;50.882;4.326;2023-04-22T00:59:00;10.80;99.90
17795;DHT22;9021;50.882;4.326;2023-04-22T01:01:26;10.20;99.90
17795;DHT22;9021;50.882;4.326;2023-04-22T01:03:52;10.40;99.90
17795;DHT22;9021;50.882;4.326;2023-04-22T01:06:18;10.00;99.90
17795;DHT22;9021;50.882;4.326;2023-04-22T01:11:13;10.20;99.90
17795;DHT22;9021;50.882;4.326;2023-04-22T01:13:39;10.40;99.90
17795;DHT22;9021;50.882;4.326;2023-04-22T01:16:06;10.40;99.90
17795;DHT22;9021;50.882;4.326;2023-04-22T01:18:34;10.00;99.90
17795;DHT22;9021;50.882;4.326;2023-04-22T01:21:00;10.70;99.90
17795;DHT22;9021;50.882;4.326;2023-04-22T01:23:26;10.40;99.90
17795;DHT22;9021;50.882;4.326;2023-04-22T01:25:52;10.70;99.90
17795;DHT22;9021;50.882;4.326;2023-04-22T01:30:44;11.20;99.90
17795;DHT22;9021;50.882;4.326;2023-04-22T01:33:10;11.00;99.90
17795;DHT22;9021;50.882;4.326;2023-04-22T01:35:37;10.30;99.90
17795;DHT22;9021;50.882;4.326;2023-04-22T01:38:04;10.60;99.90
17795;DHT22;9021;50.882;4.326;2023-04-22T01:40:33;10.50;99.90
17795;DHT22;9021;50.882;4.326;2023-04-22T01:42:59;10.10;99.90
17795;DHT22;9021;50.882;4.326;2023-04-22T01:45:26;10.20;99.90
17795;DHT22;9021;50.882;4.326;2023-04-22T01:47:52;10.50;99.90
17795;DHT22;9021;50.882;4.326;2023-04-22T01:50:18;10.40;99.90
17795;DHT22;9021;50.882;4.326;2023-04-22T01:52:44;10.60;99.90
17795;DHT22;9021;50.882;4.326;2023-04-22T01:57:35;10.90;99.90
17795;DHT22;9021;50.882;4.326;2023-04-22T02:00:02;9.90;99.90
17795;DHT22;9021;50.882;4.326;2023-04-22T02:02:27;10.20;99.90
17795;DHT22;9021;50.882;4.326;2023-04-22T02:04:53;10.50;99.90
17795;DHT22;9021;50.882;4.326;2023-04-22T02:07:19;10.30;99.90
17795;DHT22;9021;50.882;4.326;2023-04-22T02:09:44;10.10;99.90
17795;DHT22;9021;50.882;4.326;2023-04-22T02:12:10;10.30;99.90
17795;DHT22;9021;50.882;4.326;2023-04-22T02:14:36;10.50;99.90
17795;DHT22;9021;50.882;4.326;2023-04-22T02:17:01;10.60;99.90
17795;DHT22;9021;50.882;4.326;2023-04-22T02:19:28;10.30;99.90
17795;DHT22;9021;50.882;4.326;2023-04-22T02:21:54;10.20;99.90
17795;DHT22;9021;50.882;4.326;2023-04-22T02:24:20;10.30;99.90
17795;DHT22;9021;50.882;4.326;2023-04-22T02:26:45;10.10;99.90
17795;DHT22;9021;50.882;4.326;2023-04-22T02:29:12;10.60;99.90
17795;DHT22;9021;50.882;4.326;2023-04-22T02:31:37;10.00;99.90
17795;DHT22;9021;50.882;4.326;2023-04-22T02:34:03;10.80;99.90
17795;DHT22;9021;50.882;4.326;2023-04-22T02:38:56;10.40;99.90
17795;DHT22;9021;50.882;4.326;2023-04-22T02:41:22;9.90;99.90
17795;DHT22;9021;50.882;4.326;2023-04-22T02:43:48;9.70;99.90
17795;DHT22;9021;50.882;4.326;2023-04-22T02:46:14;10.00;99.90
17795;DHT22;9021;50.882;4.326;2023-04-22T02:48:41;10.40;99.90
17795;DHT22;9021;50.882;4.326;2023-04-22T02:51:07;10.30;99.90
17795;DHT22;9021;50.882;4.326;2023-04-22T02:53:33;10.30;99.90
17795;DHT22;9021;50.882;4.326;2023-04-22T02:55:59;10.30;99.90
17795;DHT22;9021;50.882;4.326;2023-04-22T02:58:25;10.70;99.90
17795;DHT22;9021;50.882;4.326;2023-04-22T03:00:51;10.50;99.90
17795;DHT22;9021;50.882;4.326;2023-04-22T03:03:17;10.60;99.90
17795;DHT22;9021;50.882;4.326;2023-04-22T03:05:43;9.90;99.90
17795;DHT22;9021;50.882;4.326;2023-04-22T03:08:08;10.30;99.90
17795;DHT22;9021;50.882;4.326;2023-04-22T03:10:34;10.10;99.90
17795;DHT22;9021;50.882;4.326;2023-04-22T03:13:00;10.60;99.90
17795;DHT22;9021;50.882;4.326;2023-04-22T03:15:25;9.80;99.90
17795;DHT22;9021;50.882;4.326;2023-04-22T03:17:51;10.60;99.90
17795;DHT22;9021;50.882;4.326;2023-04-22T03:20:17;10.20;99.90
17795;DHT22;9021;50.882;4.326;2023-04-22T03:22:42;10.10;99.90
17795;DHT22;9021;50.882;4.326;2023-04-22T03:25:10;10.00;99.90
17795;DHT22;9021;50.882;4.326;2023-04-22T03:27:36;10.20;99.90
17795;DHT22;9021;50.882;4.326;2023-04-22T03:30:03;10.50;99.90
17795;DHT22;9021;50.882;4.326;2023-04-22T03:32:28;10.40;99.90
17795;DHT22;9021;50.882;4.326;2023-04-22T03:34:54;10.70;99.90
17795;DHT22;9021;50.882;4.326;2023-04-22T03:37:20;10.40;99.90
17795;DHT22;9021;50.882;4.326;2023-04-22T03:39:45;10.70;99.90
17795;DHT22;9021;50.882;4.326;2023-04-22T03:42:12;10.60;99.90
17795;DHT22;9021;50.882;4.326;2023-04-22T03:44:38;10.60;99.90
17795;DHT22;9021;50.882;4.326;2023-04-22T03:47:04;9.90;99.90
17795;DHT22;9021;50.882;4.326;2023-04-22T03:49:30;10.80;99.90
17795;DHT22;9021;50.882;4.326;2023-04-22T03:51:56;9.90;99.90
17795;DHT22;9021;50.882;4.326;2023-04-22T03:54:21;10.50;99.90
17795;DHT22;9021;50.882;4.326;2023-04-22T03:56:47;10.60;99.90
17795;DHT22;9021;50.882;4.326;2023-04-22T03:59:13;10.80;99.90
17795;DHT22;9021;50.882;4.326;2023-04-22T04:04:04;10.50;99.90
17795;DHT22;9021;50.882;4.326;2023-04-22T04:06:30;10.10;99.90
17795;DHT22;9021;50.882;4.326;2023-04-22T04:08:56;10.90;99.90
17795;DHT22;9021;50.882;4.326;2023-04-22T04:11:22;10.20;99.90
17795;DHT22;9021;50.882;4.326;2023-04-22T04:13:48;10.30;99.90
17795;DHT22;9021;50.882;4.326;2023-04-22T04:16:14;11.00;99.90
17795;DHT22;9021;50.882;4.326;2023-04-22T04:18:40;10.50;99.90
17795;DHT22;9021;50.882;4.326;2023-04-22T04:21:06;10.60;99.90
17795;DHT22;9021;50.882;4.326;2023-04-22T04:23:32;10.60;99.90
17795;DHT22;9021;50.882;4.326;2023-04-22T04:25:58;10.70;99.90
17795;DHT22;9021;50.882;4.326;2023-04-22T04:28:25;10.70;99.90
17795;DHT22;9021;50.882;4.326;2023-04-22T04:30:51;10.20;99.90
17795;DHT22;9021;50.882;4.326;2023-04-22T04:33:18;10.60;99.90
17795;DHT22;9021;50.882;4.326;2023-04-22T04:35:43;10.80;99.90
17795;DHT22;9021;50.882;4.326;2023-04-22T04:38:09;10.00;99.90
17795;DHT22;9021;50.882;4.326;2023-04-22T04:40:37;10.50;99.90
17795;DHT22;9021;50.882;4.326;2023-04-22T04:45:33;10.50;99.90
17795;DHT22;9021;50.882;4.326;2023-04-22T04:47:58;10.20;99.90
17795;DHT22;9021;50.882;4.326;2023-04-22T04:50:25;10.90;99.90
17795;DHT22;9021;50.882;4.326;2023-04-22T04:52:53;10.70;99.90
17795;DHT22;9021;50.882;4.326;2023-04-22T04:55:19;10.90;99.90
17795;DHT22;9021;50.882;4.326;2023-04-22T04:57:47;11.00;99.90
17795;DHT22;9021;50.882;4.326;2023-04-22T05:00:13;11.00;99.90
17795;DHT22;9021;50.882;4.326;2023-04-22T05:02:39;10.70;99.90
17795;DHT22;9021;50.882;4.326;2023-04-22T05:05:05;11.40;99.90
17795;DHT22;9021;50.882;4.326;2023-04-22T05:07:31;10.60;99.90
17795;DHT22;9021;50.882;4.326;2023-04-22T05:09:57;10.50;99.90
17795;DHT22;9021;50.882;4.326;2023-04-22T05:17:15;10.50;99.90
17795;DHT22;9021;50.882;4.326;2023-04-22T05:19:41;11.20;99.90
17795;DHT22;9021;50.882;4.326;2023-04-22T05:22:06;11.00;99.90
17795;DHT22;9021;50.882;4.326;2023-04-22T05:24:32;11.10;99.90
17795;DHT22;9021;50.882;4.326;2023-04-22T05:26:58;10.80;99.90
17795;DHT22;9021;50.882;4.326;2023-04-22T05:29:26;11.20;99.90
17795;DHT22;9021;50.882;4.326;2023-04-22T05:31:52;11.10;99.90
17795;DHT22;9021;50.882;4.326;2023-04-22T05:34:17;10.40;99.90
17795;DHT22;9021;50.882;4.326;2023-04-22T05:36:43;11.30;99.90
17795;DHT22;9021;50.882;4.326;2023-04-22T05:39:09;10.40;99.90
17795;DHT22;9021;50.882;4.326;2023-04-22T05:41:34;10.90;99.90
17795;DHT22;9021;50.882;4.326;2023-04-22T05:44:00;10.80;99.90
17795;DHT22;9021;50.882;4.326;2023-04-22T05:46:26;10.90;99.90
17795;DHT22;9021;50.882;4.326;2023-04-22T05:48:51;11.40;99.90
17795;DHT22;9021;50.882;4.326;2023-04-22T05:51:19;11.20;99.90
17795;DHT22;9021;50.882;4.326;2023-04-22T05:53:44;11.40;99.90
17795;DHT22;9021;50.882;4.326;2023-04-22T05:56:10;11.20;99.90
17795;DHT22;9021;50.882;4.326;2023-04-22T05:58:36;11.90;99.90
17795;DHT22;9021;50.882;4.326;2023-04-22T06:01:02;11.50;99.90
17795;DHT22;9021;50.882;4.326;2023-04-22T06:03:27;11.20;99.90
17795;DHT22;9021;50.882;4.326;2023-04-22T06:08:19;12.00;99.90
17795;DHT22;9021;50.882;4.326;2023-04-22T06:10:45;12.00;99.90
17795;DHT22;9021;50.882;4.326;2023-04-22T06:13:10;12.60;99.90
17795;DHT22;9021;50.882;4.326;2023-04-22T06:15:36;12.00;99.90
17795;DHT22;9021;50.882;4.326;2023-04-22T06:18:02;11.90;99.90
17795;DHT22;9021;50.882;4.326;2023-04-22T06:20:27;12.50;99.90
17795;DHT22;9021;50.882;4.326;2023-04-22T06:22:53;12.30;99.90
17795;DHT22;9021;50.882;4.326;2023-04-22T06:25:19;12.30;99.90
17795;DHT22;9021;50.882;4.326;2023-04-22T06:27:45;12.40;99.90
17795;DHT22;9021;50.882;4.326;2023-04-22T06:30:11;12.40;99.90
17795;DHT22;9021;50.882;4.326;2023-04-22T06:32:36;12.70;99.90
17795;DHT22;9021;50.882;4.326;2023-04-22T06:35:02;12.90;99.90
17795;DHT22;9021;50.882;4.326;2023-04-22T06:37:28;12.60;99.90
17795;DHT22;9021;50.882;4.326;2023-04-22T06:39:54;12.90;99.90
17795;DHT22;9021;50.882;4.326;2023-04-22T06:42:20;12.80;99.90
17795;DHT22;9021;50.882;4.326;2023-04-22T06:44:45;12.70;99.90
17795;DHT22;9021;50.882;4.326;2023-04-22T06:47:11;12.70;99.90
17795;DHT22;9021;50.882;4.326;2023-04-22T06:49:37;12.50;99.90
17795;DHT22;9021;50.882;4.326;2023-04-22T06:52:04;12.90;99.90
17795;DHT22;9021;50.882;4.326;2023-04-22T06:54:29;12.80;99.90
17795;DHT22;9021;50.882;4.326;2023-04-22T06:56:56;12.70;99.90
17795;DHT22;9021;50.882;4.326;2023-04-22T06:59:22;13.20;99.90
17795;DHT22;9021;50.882;4.326;2023-04-22T07:01:48;12.80;99.90
17795;DHT22;9021;50.882;4.326;2023-04-22T07:04:13;13.20;99.90
17795;DHT22;9021;50.882;4.326;2023-04-22T07:06:39;12.80;99.90
17795;DHT22;9021;50.882;4.326;2023-04-22T07:09:05;12.80;99.90
17795;DHT22;9021;50.882;4.326;2023-04-22T07:11:31;12.90;99.90
17795;DHT22;9021;50.882;4.326;2023-04-22T07:13:57;13.40;99.90
17795;DHT22;9021;50.882;4.326;2023-04-22T07:18:49;12.80;99.90
17795;DHT22;9021;50.882;4.326;2023-04-22T07:21:14;13.00;99.90
17795;DHT22;9021;50.882;4.326;2023-04-22T07:23:40;13.30;99.90
17795;DHT22;9021;50.882;4.326;2023-04-22T07:26:06;14.10;99.90
17795;DHT22;9021;50.882;4.326;2023-04-22T07:28:31;12.90;99.90
17795;DHT22;9021;50.882;4.326;2023-04-22T07:30:57;13.60;99.90
17795;DHT22;9021;50.882;4.326;2023-04-22T07:33:23;13.30;99.90
17795;DHT22;9021;50.882;4.326;2023-04-22T07:35:48;13.00;99.90
17795;DHT22;9021;50.882;4.326;2023-04-22T07:38:14;13.20;99.90
17795;DHT22;9021;50.882;4.326;2023-04-22T07:40:40;13.00;99.90
17795;DHT22;9021;50.882;4.326;2023-04-22T07:43:06;13.10;99.90
17795;DHT22;9021;50.882;4.326;2023-04-22T07:47:57;13.20;99.90
17795;DHT22;9021;50.882;4.326;2023-04-22T07:50:23;13.10;99.90
17795;DHT22;9021;50.882;4.326;2023-04-22T07:52:49;13.60;99.90
17795;DHT22;9021;50.882;4.326;2023-04-22T07:55:15;13.40;99.90
17795;DHT22;9021;50.882;4.326;2023-04-22T07:57:40;13.70;99.90
17795;DHT22;9021;50.882;4.326;2023-04-22T08:00:07;14.20;99.90
17795;DHT22;9021;50.882;4.326;2023-04-22T08:02:33;13.90;99.90
17795;DHT22;9021;50.882;4.326;2023-04-22T08:04:59;14.20;99.90
17795;DHT22;9021;50.882;4.326;2023-04-22T08:07:25;14.30;99.90
17795;DHT22;9021;50.882;4.326;2023-04-22T08:09:51;14.50;99.90
17795;DHT22;9021;50.882;4.326;2023-04-22T08:12:17;14.60;99.90
17795;DHT22;9021;50.882;4.326;2023-04-22T08:14:42;14.70;99.90
17795;DHT22;9021;50.882;4.326;2023-04-22T08:17:08;14.80;99.90
17795;DHT22;9021;50.882;4.326;2023-04-22T08:19:34;15.20;99.90
17795;DHT22;9021;50.882;4.326;2023-04-22T08:22:00;15.70;99.90
17795;DHT22;9021;50.882;4.326;2023-04-22T08:24:25;16.10;99.90
17795;DHT22;9021;50.882;4.326;2023-04-22T08:26:51;16.50;99.90
17795;DHT22;9021;50.882;4.326;2023-04-22T08:29:17;16.60;99.90
17795;DHT22;9021;50.882;4.326;2023-04-22T08:31:43;16.70;99.90
17795;DHT22;9021;50.882;4.326;2023-04-22T08:34:08;16.70;99.90
17795;DHT22;9021;50.882;4.326;2023-04-22T08:36:34;16.90;99.90
17795;DHT22;9021;50.882;4.326;2023-04-22T08:39:00;16.60;99.90
17795;DHT22;9021;50.882;4.326;2023-04-22T08:41:26;16.30;99.90
17795;DHT22;9021;50.882;4.326;2023-04-22T08:43:52;16.80;99.90
17795;DHT22;9021;50.882;4.326;2023-04-22T08:46:18;16.50;99.90
17795;DHT22;9021;50.882;4.326;2023-04-22T08:48:49;16.80;99.90
17795;DHT22;9021;50.882;4.326;2023-04-22T08:51:16;17.30;99.90
17795;DHT22;9021;50.882;4.326;2023-04-22T08:53:43;17.20;99.90
17795;DHT22;9021;50.882;4.326;2023-04-22T08:56:10;17.20;99.90
17795;DHT22;9021;50.882;4.326;2023-04-22T08:58:37;17.30;99.90
17795;DHT22;9021;50.882;4.326;2023-04-22T09:01:03;17.30;99.90
17795;DHT22;9021;50.882;4.326;2023-04-22T09:03:29;17.30;99.90
17795;DHT22;9021;50.882;4.326;2023-04-22T09:05:56;17.40;99.90
17795;DHT22;9021;50.882;4.326;2023-04-22T09:08:22;17.10;99.90
17795;DHT22;9021;50.882;4.326;2023-04-22T09:10:48;17.40;99.90
17795;DHT22;9021;50.882;4.326;2023-04-22T09:13:15;17.40;99.90
17795;DHT22;9021;50.882;4.326;2023-04-22T09:15:41;17.00;99.90
17795;DHT22;9021;50.882;4.326;2023-04-22T09:18:10;16.80;99.90
17795;DHT22;9021;50.882;4.326;2023-04-22T09:20:35;16.50;99.90
17795;DHT22;9021;50.882;4.326;2023-04-22T09:23:02;16.40;99.90
17795;DHT22;9021;50.882;4.326;2023-04-22T09:25:31;15.80;99.90
17795;DHT22;9021;50.882;4.326;2023-04-22T09:27:58;16.20;99.90
17795;DHT22;9021;50.882;4.326;2023-04-22T09:30:29;15.80;99.90
17795;DHT22;9021;50.882;4.326;2023-04-22T09:32:57;13.60;99.90
17795;DHT22;9021;50.882;4.326;2023-04-22T09:35:37;15.90;99.90
17795;DHT22;9021;50.882;4.326;2023-04-22T09:38:05;16.30;99.90
17795;DHT22;9021;50.882;4.326;2023-04-22T09:40:35;15.20;99.90
17795;DHT22;9021;50.882;4.326;2023-04-22T09:43:04;15.30;99.90
17795;DHT22;9021;50.882;4.326;2023-04-22T09:45:39;15.60;99.90
17795;DHT22;9021;50.882;4.326;2023-04-22T09:48:13;15.20;99.90
17795;DHT22;9021;50.882;4.326;2023-04-22T09:50:43;15.30;99.90
17795;DHT22;9021;50.882;4.326;2023-04-22T09:53:12;15.10;99.90
17795;DHT22;9021;50.882;4.326;2023-04-22T09:55:42;14.80;99.90
17795;DHT22;9021;50.882;4.326;2023-04-22T09:58:10;14.80;99.90
17795;DHT22;9021;50.882;4.326;2023-04-22T10:00:44;14.70;99.90
17795;DHT22;9021;50.882;4.326;2023-04-22T10:03:11;14.80;99.90
17795;DHT22;9021;50.882;4.326;2023-04-22T10:05:37;14.70;99.90
17795;DHT22;9021;50.882;4.326;2023-04-22T10:08:07;14.60;99.90
17795;DHT22;9021;50.882;4.326;2023-04-22T10:10:36;14.60;99.90
17795;DHT22;9021;50.882;4.326;2023-04-22T10:13:03;14.80;99.90
17795;DHT22;9021;50.882;4.326;2023-04-22T10:15:40;14.50;99.90
17795;DHT22;9021;50.882;4.326;2023-04-22T10:18:09;14.70;99.90
17795;DHT22;9021;50.882;4.326;2023-04-22T10:20:39;14.50;99.90
17795;DHT22;9021;50.882;4.326;2023-04-22T10:23:14;14.50;99.90
17795;DHT22;9021;50.882;4.326;2023-04-22T10:25:46;14.40;99.90
17795;DHT22;9021;50.882;4.326;2023-04-22T10:28:15;14.60;99.90
17795;DHT22;9021;50.882;4.326;2023-04-22T10:30:41;15.10;99.90
17795;DHT22;9021;50.882;4.326;2023-04-22T10:36:15;14.60;99.90
17795;DHT22;9021;50.882;4.326;2023-04-22T10:41:27;14.30;99.90
17795;DHT22;9021;50.882;4.326;2023-04-22T10:44:00;14.20;99.90
17795;DHT22;9021;50.882;4.326;2023-04-22T10:49:13;14.10;99.90
17795;DHT22;9021;50.882;4.326;2023-04-22T10:57:10;14.70;99.90
17795;DHT22;9021;50.882;4.326;2023-04-22T10:59:50;14.70;99.90
17795;DHT22;9021;50.882;4.326;2023-04-22T11:02:17;14.70;99.90
17795;DHT22;9021;50.882;4.326;2023-04-22T11:04:43;14.90;99.90
17795;DHT22;9021;50.882;4.326;2023-04-22T11:15:14;15.20;99.90
17795;DHT22;9021;50.882;4.326;2023-04-22T11:17:45;15.00;99.90
17795;DHT22;9021;50.882;4.326;2023-04-22T11:20:11;14.80;99.90
17795;DHT22;9021;50.882;4.326;2023-04-22T11:22:52;14.70;99.90
17795;DHT22;9021;50.882;4.326;2023-04-22T11:25:19;14.90;99.90
17795;DHT22;9021;50.882;4.326;2023-04-22T11:27:45;14.90;99.90
17795;DHT22;9021;50.882;4.326;2023-04-22T11:30:19;14.40;99.90
17795;DHT22;9021;50.882;4.326;2023-04-22T11:35:22;14.70;99.90
17795;DHT22;9021;50.882;4.326;2023-04-22T11:37:49;14.50;99.90
17795;DHT22;9021;50.882;4.326;2023-04-22T11:40:18;14.20;99.90
17795;DHT22;9021;50.882;4.326;2023-04-22T11:42:44;14.40;99.90
17795;DHT22;9021;50.882;4.326;2023-04-22T11:45:10;14.50;99.90
17795;DHT22;9021;50.882;4.326;2023-04-22T11:47:39;14.00;99.90
17795;DHT22;9021;50.882;4.326;2023-04-22T11:50:09;14.80;99.90
17795;DHT22;9021;50.882;4.326;2023-04-22T11:55:23;14.60;99.90
17795;DHT22;9021;50.882;4.326;2023-04-22T11:58:08;14.50;99.90
17795;DHT22;9021;50.882;4.326;2023-04-22T12:00:42;14.60;99.90
17795;DHT22;9021;50.882;4.326;2023-04-22T12:03:12;14.60;99.90
17795;DHT22;9021;50.882;4.326;2023-04-22T12:08:12;14.60;99.90
17795;DHT22;9021;50.882;4.326;2023-04-22T12:13:29;14.60;99.90
17795;DHT22;9021;50.882;4.326;2023-04-22T12:15:59;14.60;99.90
17795;DHT22;9021;50.882;4.326;2023-04-22T12:18:54;14.60;99.90
17795;DHT22;9021;50.882;4.326;2023-04-22T12:21:22;14.60;99.90
17795;DHT22;9021;50.882;4.326;2023-04-22T12:23:53;14.60;99.90
17795;DHT22;9021;50.882;4.326;2023-04-22T12:26:20;14.50;99.90
17795;DHT22;9021;50.882;4.326;2023-04-22T12:28:46;14.80;99.90
17795;DHT22;9021;50.882;4.326;2023-04-22T12:31:13;14.40;99.90
17795;DHT22;9021;50.882;4.326;2023-04-22T12:33:39;14.80;99.90
17795;DHT22;9021;50.882;4.326;2023-04-22T12:36:05;14.50;99.90
17795;DHT22;9021;50.882;4.326;2023-04-22T12:38:31;14.60;99.90
17795;DHT22;9021;50.882;4.326;2023-04-22T12:40:57;14.60;99.90
17795;DHT22;9021;50.882;4.326;2023-04-22T12:43:24;14.30;99.90
17795;DHT22;9021;50.882;4.326;2023-04-22T12:45:49;14.70;99.90
17795;DHT22;9021;50.882;4.326;2023-04-22T12:48:15;14.80;99.90
17795;DHT22;9021;50.882;4.326;2023-04-22T12:50:43;14.70;99.90
17795;DHT22;9021;50.882;4.326;2023-04-22T12:53:09;14.70;99.90
17795;DHT22;9021;50.882;4.326;2023-04-22T12:55:37;14.60;99.90
17795;DHT22;9021;50.882;4.326;2023-04-22T12:58:03;14.20;99.90
17795;DHT22;9021;50.882;4.326;2023-04-22T13:00:29;14.70;99.90
17795;DHT22;9021;50.882;4.326;2023-04-22T13:02:55;15.10;99.90
17795;DHT22;9021;50.882;4.326;2023-04-22T13:05:20;14.70;99.90
17795;DHT22;9021;50.882;4.326;2023-04-22T13:07:46;14.80;99.90
17795;DHT22;9021;50.882;4.326;2023-04-22T13:10:14;15.30;99.90
17795;DHT22;9021;50.882;4.326;2023-04-22T13:12:40;14.30;99.90
17795;DHT22;9021;50.882;4.326;2023-04-22T13:15:07;15.10;99.90
17795;DHT22;9021;50.882;4.326;2023-04-22T13:17:36;14.70;99.90
17795;DHT22;9021;50.882;4.326;2023-04-22T13:20:04;14.80;99.90
17795;DHT22;9021;50.882;4.326;2023-04-22T13:22:30;14.90;99.90
17795;DHT22;9021;50.882;4.326;2023-04-22T13:24:56;14.40;99.90
17795;DHT22;9021;50.882;4.326;2023-04-22T13:27:22;14.70;99.90
17795;DHT22;9021;50.882;4.326;2023-04-22T13:29:47;14.70;99.90
17795;DHT22;9021;50.882;4.326;2023-04-22T13:32:13;15.20;99.90
17795;DHT22;9021;50.882;4.326;2023-04-22T13:34:39;14.60;99.90
17795;DHT22;9021;50.882;4.326;2023-04-22T13:37:05;14.50;99.90
17795;DHT22;9021;50.882;4.326;2023-04-22T13:39:31;14.20;99.90
17795;DHT22;9021;50.882;4.326;2023-04-22T13:41:57;14.50;99.90
17795;DHT22;9021;50.882;4.326;2023-04-22T13:44:23;14.20;99.90
17795;DHT22;9021;50.882;4.326;2023-04-22T13:49:14;14.40;99.90
17795;DHT22;9021;50.882;4.326;2023-04-22T13:51:40;14.50;99.90
17795;DHT22;9021;50.882;4.326;2023-04-22T13:54:06;14.70;99.90
17795;DHT22;9021;50.882;4.326;2023-04-22T13:56:32;14.70;99.90
17795;DHT22;9021;50.882;4.326;2023-04-22T13:58:58;14.30;99.90
17795;DHT22;9021;50.882;4.326;2023-04-22T14:01:25;13.80;99.90
17795;DHT22;9021;50.882;4.326;2023-04-22T14:03:51;14.70;99.90
17795;DHT22;9021;50.882;4.326;2023-04-22T14:06:20;14.30;99.90
17795;DHT22;9021;50.882;4.326;2023-04-22T14:08:46;13.90;99.90
17795;DHT22;9021;50.882;4.326;2023-04-22T14:11:12;14.60;99.90
17795;DHT22;9021;50.882;4.326;2023-04-22T14:13:38;14.10;99.90
17795;DHT22;9021;50.882;4.326;2023-04-22T14:16:05;14.10;99.90
17795;DHT22;9021;50.882;4.326;2023-04-22T14:18:39;14.50;99.90
17795;DHT22;9021;50.882;4.326;2023-04-22T14:21:06;13.90;99.90
17795;DHT22;9021;50.882;4.326;2023-04-22T14:23:35;14.20;99.90
17795;DHT22;9021;50.882;4.326;2023-04-22T14:26:00;14.00;99.90
17795;DHT22;9021;50.882;4.326;2023-04-22T14:28:27;14.10;99.90
17795;DHT22;9021;50.882;4.326;2023-04-22T14:30:52;13.90;99.90
17795;DHT22;9021;50.882;4.326;2023-04-22T14:33:19;13.70;99.90
17795;DHT22;9021;50.882;4.326;2023-04-22T14:35:45;13.20;99.90
17795;DHT22;9021;50.882;4.326;2023-04-22T14:38:11;13.50;99.90
17795;DHT22;9021;50.882;4.326;2023-04-22T14:40:37;13.90;99.90
17795;DHT22;9021;50.882;4.326;2023-04-22T14:43:06;13.80;99.90
17795;DHT22;9021;50.882;4.326;2023-04-22T14:45:32;13.40;99.90
17795;DHT22;9021;50.882;4.326;2023-04-22T14:47:58;13.60;99.90
17795;DHT22;9021;50.882;4.326;2023-04-22T14:50:27;13.60;99.90
17795;DHT22;9021;50.882;4.326;2023-04-22T14:52:53;13.60;99.90
17795;DHT22;9021;50.882;4.326;2023-04-22T14:55:19;14.10;99.90
17795;DHT22;9021;50.882;4.326;2023-04-22T14:57:53;16.20;99.90
17795;DHT22;9021;50.882;4.326;2023-04-22T15:00:28;14.00;99.90
17795;DHT22;9021;50.882;4.326;2023-04-22T15:02:54;13.90;99.90
17795;DHT22;9021;50.882;4.326;2023-04-22T15:05:20;13.80;99.90
17795;DHT22;9021;50.882;4.326;2023-04-22T15:07:48;13.70;99.90
17795;DHT22;9021;50.882;4.326;2023-04-22T15:10:13;13.60;99.90
17795;DHT22;9021;50.882;4.326;2023-04-22T15:12:41;13.90;99.90
17795;DHT22;9021;50.882;4.326;2023-04-22T15:15:07;13.50;99.90
17795;DHT22;9021;50.882;4.326;2023-04-22T15:19:59;13.60;99.90
17795;DHT22;9021;50.882;4.326;2023-04-22T15:22:25;13.20;99.90
17795;DHT22;9021;50.882;4.326;2023-04-22T15:24:51;14.10;99.90
17795;DHT22;9021;50.882;4.326;2023-04-22T15:27:17;13.80;99.90
17795;DHT22;9021;50.882;4.326;2023-04-22T15:29:43;13.90;99.90
17795;DHT22;9021;50.882;4.326;2023-04-22T15:32:11;13.90;99.90
17795;DHT22;9021;50.882;4.326;2023-04-22T15:34:37;14.40;99.90
17795;DHT22;9021;50.882;4.326;2023-04-22T15:37:02;14.50;99.90
17795;DHT22;9021;50.882;4.326;2023-04-22T15:39:28;14.10;99.90
17795;DHT22;9021;50.882;4.326;2023-04-22T15:41:55;13.90;99.90
17795;DHT22;9021;50.882;4.326;2023-04-22T15:44:21;14.30;99.90
17795;DHT22;9021;50.882;4.326;2023-04-22T15:46:50;13.90;99.90
17795;DHT22;9021;50.882;4.326;2023-04-22T15:49:17;14.30;99.90
17795;DHT22;9021;50.882;4.326;2023-04-22T15:51:42;14.10;99.90
17795;DHT22;9021;50.882;4.326;2023-04-22T15:54:08;14.60;99.90
17795;DHT22;9021;50.882;4.326;2023-04-22T15:56:34;13.90;99.90
17795;DHT22;9021;50.882;4.326;2023-04-22T15:59:00;14.20;99.90
17795;DHT22;9021;50.882;4.326;2023-04-22T16:01:26;14.30;99.90
17795;DHT22;9021;50.882;4.326;2023-04-22T16:03:51;13.90;99.90
17795;DHT22;9021;50.882;4.326;2023-04-22T16:06:17;14.50;99.90
17795;DHT22;9021;50.882;4.326;2023-04-22T16:08:44;14.20;99.90
17795;DHT22;9021;50.882;4.326;2023-04-22T16:11:10;13.60;99.90
17795;DHT22;9021;50.882;4.326;2023-04-22T16:13:36;14.00;99.90
17795;DHT22;9021;50.882;4.326;2023-04-22T16:16:04;13.90;99.90
17795;DHT22;9021;50.882;4.326;2023-04-22T16:18:31;13.80;99.90
17795;DHT22;9021;50.882;4.326;2023-04-22T16:20:58;13.40;99.90
17795;DHT22;9021;50.882;4.326;2023-04-22T16:23:24;13.60;99.90
17795;DHT22;9021;50.882;4.326;2023-04-22T16:25:50;13.70;99.90
17795;DHT22;9021;50.882;4.326;2023-04-22T16:28:16;13.90;99.90
17795;DHT22;9021;50.882;4.326;2023-04-22T16:30:42;14.00;99.90
17795;DHT22;9021;50.882;4.326;2023-04-22T16:33:08;14.30;99.90
17795;DHT22;9021;50.882;4.326;2023-04-22T16:35:33;13.70;99.90
17795;DHT22;9021;50.882;4.326;2023-04-22T16:37:59;13.50;99.90
17795;DHT22;9021;50.882;4.326;2023-04-22T16:40:25;13.40;99.90
17795;DHT22;9021;50.882;4.326;2023-04-22T16:42:51;13.50;99.90
17795;DHT22;9021;50.882;4.326;2023-04-22T16:45:16;13.80;99.90
17795;DHT22;9021;50.882;4.326;2023-04-22T16:47:42;13.70;99.90
17795;DHT22;9021;50.882;4.326;2023-04-22T16:50:08;13.30;99.90
17795;DHT22;9021;50.882;4.326;2023-04-22T16:52:40;13.40;99.90
17795;DHT22;9021;50.882;4.326;2023-04-22T16:55:06;13.90;99.90